Time;durP1;ratioP1;P1;durP2;ratioP2;P2;SDS_P1;SDS_P2;PMS_P1;PMS_P2;Temp;Humidity;BMP_temperature;BMP_pressure;BME280_temperature;BME280_humidity;BME280_pressure;Samples;Min_cycle;Max_cycle;Signal;HPM_P1;HPM_P2
2024/01/02 00:02:02;;;;;;;;;;;;;;;;;;4913015;29;20553;-77
2024/01/02 00:05:05;;;;;;;6.78;1.48;;;;;;;;;;4919691;29;19933;-80
2024/01/02 00:07:56;;;;;;;5.35;1.02;;;;;;;;;;4931677;29;20048;-78
2024/01/02 00:11:05;;;;;;;3.67;0.90;;;;;;;;;;4932490;29;20103;-78
2024/01/02 00:13:45;;;;;;;4.30;1.00;;;;;;;;;;4915738;29;20028;-77
2024/01/02 00:16:14;;;;;;;4.00;0.55;;;;;;;;;;4915700;29;20044;-77
2024/01/02 00:21:37;;;;;;;9.68;1.15;;;;;;;;;;4934111;29;20051;-77
2024/01/02 00:24:07;;;;;;;3.40;0.73;;;;;;;;;;4932511;29;20036;-76
2024/01/02 00:26:36;;;;;;;8.45;1.25;;;;;;;;;;4906539;29;20098;-77
2024/01/02 00:32:19;;;;;;;7.75;0.90;;;;;;;;;;5020248;22;20504;-78
2024/01/02 00:38:55;;;;;;;4.72;0.98;;;;;;;;;;5026312;28;20057;-77
2024/01/02 00:41:21;;;;;;;2.28;0.70;;;;;;;;;;5009515;28;20046;-77
2024/01/02 00:43:47;;;;;;;3.25;0.75;;;;;;;;;;4995696;28;20025;-77
2024/01/02 00:46:35;;;;;;;4.28;1.15;;;;;;;;;;5014001;28;20057;-77
2024/01/02 00:49:14;;;;;;;8.20;0.85;;;;;;;;;;5014232;28;20093;-76
2024/01/02 00:51:40;;;;;;;7.38;0.90;;;;;;;;;;5012132;28;20026;-76
2024/01/02 00:54:07;;;;;;;5.15;0.77;;;;;;;;;;4979966;28;20382;-77
2024/01/02 00:56:37;;;;;;;4.35;0.75;;;;;;;;;;4996666;28;20026;-77
2024/01/02 00:59:04;;;;;;;4.32;0.80;;;;;;;;;;4995348;28;20038;-77
2024/01/02 01:01:31;;;;;;;3.00;0.70;;;;;;;;;;5017780;28;20038;-77
2024/01/02 01:03:58;;;;;;;4.43;0.60;;;;;;;;;;4984595;28;20038;-77
2024/01/02 01:09:19;;;;;;;5.03;0.70;;;;;;;;;;4988770;28;20056;-77
2024/01/02 01:11:48;;;;;;;7.70;0.90;;;;;;;;;;4977387;28;20030;-78
2024/01/02 01:14:15;;;;;;;6.65;0.70;;;;;;;;;;4995958;28;20086;-77
2024/01/02 01:17:04;;;;;;;2.40;0.70;;;;;;;;;;4996879;28;20034;-77
2024/01/02 01:19:34;;;;;;;4.57;0.80;;;;;;;;;;4933802;29;20081;-78
2024/01/02 01:21:59;;;;;;;;;;;;;;;;;;4918864;29;20413;-78
2024/01/02 01:24:27;;;;;;;7.55;0.88;;;;;;;;;;5093175;23;19968;-78
2024/01/02 01:27:02;;;;;;;4.35;0.68;;;;;;;;;;5048745;28;20033;-78
2024/01/02 01:29:29;;;;;;;4.57;1.13;;;;;;;;;;5047481;28;20093;-78
2024/01/02 01:31:58;;;;;;;5.30;1.08;;;;;;;;;;5029466;28;20045;-78
2024/01/02 01:34:23;;;;;;;;;;;;;;;;;;5047825;28;20048;-78
2024/01/02 01:36:49;;;;;;;5.50;1.23;;;;;;;;;;5045470;28;19905;-77
2024/01/02 01:39:16;;;;;;;5.80;0.90;;;;;;;;;;5029968;28;20083;-77
2024/01/02 01:41:41;;;;;;;9.10;1.00;;;;;;;;;;5045318;28;20033;-78
2024/01/02 01:44:41;;;;;;;9.23;1.38;;;;;;;;;;5030797;28;20092;-78
2024/01/02 01:47:12;;;;;;;3.78;0.80;;;;;;;;;;5047277;28;20022;-78
2024/01/02 01:49:38;;;;;;;7.13;0.82;;;;;;;;;;5015603;28;20459;-77
2024/01/02 01:52:06;;;;;;;4.38;1.02;;;;;;;;;;5044008;28;20048;-79
2024/01/02 01:54:32;;;;;;;4.68;1.13;;;;;;;;;;5044376;28;20079;-78
2024/01/02 01:56:58;;;;;;;9.30;1.20;;;;;;;;;;5044447;28;20030;-79
2024/01/02 01:59:24;;;;;;;2.95;0.65;;;;;;;;;;5042938;28;20030;-77
2024/01/02 02:01:54;;;;;;;6.43;1.00;;;;;;;;;;5042602;28;20033;-76
2024/01/02 02:04:23;;;;;;;6.47;1.35;;;;;;;;;;5045706;28;20056;-78
2024/01/02 02:06:52;;;;;;;5.32;1.20;;;;;;;;;;5043959;28;20057;-78
2024/01/02 02:09:18;;;;;;;6.93;1.10;;;;;;;;;;5010069;28;20030;-78
2024/01/02 02:12:00;;;;;;;7.95;1.25;;;;;;;;;;5046271;28;20029;-80
2024/01/02 02:14:26;;;;;;;6.20;1.10;;;;;;;;;;5031869;22;20052;-78
2024/01/02 02:16:52;;;;;;;8.73;1.48;;;;;;;;;;5008330;28;20093;-78
2024/01/02 02:19:55;;;;;;;6.88;1.33;;;;;;;;;;4990905;28;20382;-78
2024/01/02 02:22:27;;;;;;;7.15;1.45;;;;;;;;;;5026798;28;20030;-76
2024/01/02 02:25:21;;;;;;;4.38;1.27;;;;;;;;;;5038887;23;20423;-78
2024/01/02 02:27:47;;;;;;;10.52;1.30;;;;;;;;;;5045363;28;20033;-77
2024/01/02 02:30:47;;;;;;;6.05;1.45;;;;;;;;;;5014121;28;20088;-79
2024/01/02 02:33:15;;;;;;;9.70;1.60;;;;;;;;;;5009442;28;20143;-76
2024/01/02 02:35:44;;;;;;;7.15;1.15;;;;;;;;;;4992149;28;20048;-77
2024/01/02 02:38:16;;;;;;;10.00;1.40;;;;;;;;;;4990515;28;20025;-78
2024/01/02 02:40:42;;;;;;;6.50;1.73;;;;;;;;;;5023611;28;20480;-77
2024/01/02 02:43:10;;;;;;;5.32;1.42;;;;;;;;;;5007819;28;20037;-78
2024/01/02 02:45:36;;;;;;;6.57;1.40;;;;;;;;;;4993218;28;20026;-78
2024/01/02 02:48:04;;;;;;;11.35;1.52;;;;;;;;;;4993404;28;20037;-77
2024/01/02 02:50:31;;;;;;;6.00;1.13;;;;;;;;;;5010183;28;20088;-78
2024/01/02 02:52:56;;;;;;;5.90;1.48;;;;;;;;;;4991497;28;20033;-77
2024/01/02 02:55:29;;;;;;;8.02;1.40;;;;;;;;;;5022919;28;20468;-78
2024/01/02 02:57:58;;;;;;;8.82;1.55;;;;;;;;;;4991734;28;20125;-78
2024/01/02 03:00:24;;;;;;;11.68;1.85;;;;;;;;;;5024607;28;20108;-77
2024/01/02 03:02:50;;;;;;;5.93;1.48;;;;;;;;;;5005531;28;20457;-77
2024/01/02 03:05:20;;;;;;;13.93;1.77;;;;;;;;;;5021726;28;20427;-78
2024/01/02 03:07:52;;;;;;;8.68;2.00;;;;;;;;;;5021673;28;20030;-77
2024/01/02 03:10:22;;;;;;;10.88;1.40;;;;;;;;;;5022252;28;20029;-77
2024/01/02 03:12:48;;;;;;;10.18;1.70;;;;;;;;;;5021985;28;20489;-78
2024/01/02 03:15:14;;;;;;;9.35;1.50;;;;;;;;;;5039180;28;20503;-78
2024/01/02 03:17:40;;;;;;;4.80;1.33;;;;;;;;;;5040985;28;20518;-78
2024/01/02 03:20:06;;;;;;;13.75;1.80;;;;;;;;;;5039402;28;20033;-76
2024/01/02 03:22:33;;;;;;;6.45;1.25;;;;;;;;;;5005427;28;20038;-78
2024/01/02 03:24:59;;;;;;;9.07;2.08;;;;;;;;;;5021196;28;20037;-77
2024/01/02 03:27:25;;;;;;;5.50;1.23;;;;;;;;;;5007016;28;20097;-77
2024/01/02 03:29:53;;;;;;;6.55;1.63;;;;;;;;;;5006810;28;20098;-76
2024/01/02 03:32:19;;;;;;;7.57;1.25;;;;;;;;;;5023512;28;20073;-76
2024/01/02 03:34:47;;;;;;;7.38;1.65;;;;;;;;;;5024164;28;20045;-77
2024/01/02 03:37:19;;;;;;;11.40;2.40;;;;;;;;;;5023443;28;20060;-78
2024/01/02 03:39:44;;;;;;;7.07;1.27;;;;;;;;;;5007472;28;20109;-78
2024/01/02 03:42:10;;;;;;;10.48;1.92;;;;;;;;;;5022450;28;20073;-77
2024/01/02 03:44:35;;;;;;;15.70;2.65;;;;;;;;;;4989798;28;20128;-78
2024/01/02 03:47:03;;;;;;;5.50;1.42;;;;;;;;;;5039446;28;20085;-78
2024/01/02 03:49:29;;;;;;;6.90;1.63;;;;;;;;;;5039396;28;20041;-77
2024/01/02 03:51:55;;;;;;;5.35;1.20;;;;;;;;;;5040540;28;20030;-78
2024/01/02 03:54:22;;;;;;;6.95;1.83;;;;;;;;;;5006373;28;20029;-78
2024/01/02 03:56:48;;;;;;;8.05;2.28;;;;;;;;;;5023074;28;20440;-77
2024/01/02 03:59:14;;;;;;;7.28;1.30;;;;;;;;;;5023192;28;20118;-77
2024/01/02 04:01:44;;;;;;;6.10;1.35;;;;;;;;;;5041232;28;20029;-77
2024/01/02 04:04:09;;;;;;;7.15;1.48;;;;;;;;;;5022030;28;20025;-77
2024/01/02 04:06:35;;;;;;;9.50;1.20;;;;;;;;;;5040745;28;20055;-77
2024/01/02 04:09:02;;;;;;;7.80;1.10;;;;;;;;;;5008071;28;20040;-77
2024/01/02 04:11:28;;;;;;;7.10;1.52;;;;;;;;;;5024959;28;20084;-78
2024/01/02 04:13:54;;;;;;;9.13;1.40;;;;;;;;;;5041089;28;20034;-77
2024/01/02 04:16:19;;;;;;;13.80;1.60;;;;;;;;;;5045312;28;20034;-77
2024/01/02 04:18:50;;;;;;;9.02;1.45;;;;;;;;;;5029723;28;20033;-77
2024/01/02 04:21:16;;;;;;;10.95;2.58;;;;;;;;;;5027946;28;20041;-79
2024/01/02 04:23:41;;;;;;;8.30;1.75;;;;;;;;;;5026285;28;20045;-77
2024/01/02 04:26:07;;;;;;;5.70;1.30;;;;;;;;;;5045464;28;20567;-79
2024/01/02 04:28:33;;;;;;;11.93;1.42;;;;;;;;;;5042555;28;20476;-78
2024/01/02 04:31:00;;;;;;;10.00;1.67;;;;;;;;;;5044612;28;20097;-77
2024/01/02 04:33:26;;;;;;;9.05;1.30;;;;;;;;;;5039434;28;20052;-78
2024/01/02 04:35:52;;;;;;;11.05;1.50;;;;;;;;;;5040750;28;20484;-79
2024/01/02 04:38:17;;;;;;;6.60;1.13;;;;;;;;;;5025813;28;20504;-77
2024/01/02 04:40:43;;;;;;;9.63;1.55;;;;;;;;;;5040050;28;20560;-77
2024/01/02 04:43:09;;;;;;;10.00;1.70;;;;;;;;;;5008689;28;20515;-78
2024/01/02 04:45:34;;;;;;;7.22;1.20;;;;;;;;;;5006772;28;20511;-77
2024/01/02 04:48:00;;;;;;;14.95;2.25;;;;;;;;;;4991284;28;20040;-79
2024/01/02 04:50:26;;;;;;;6.47;2.33;;;;;;;;;;5005685;28;20481;-78
2024/01/02 04:52:52;;;;;;;11.18;1.63;;;;;;;;;;5005980;28;20419;-78
2024/01/02 04:55:17;;;;;;;9.20;1.38;;;;;;;;;;4987091;28;20448;-78
2024/01/02 04:57:43;;;;;;;12.27;1.42;;;;;;;;;;4989867;28;20041;-78
2024/01/02 05:00:09;;;;;;;11.32;1.58;;;;;;;;;;5023580;28;20034;-78
2024/01/02 05:02:35;;;;;;;9.35;1.50;;;;;;;;;;5023316;28;20087;-77
2024/01/02 05:05:00;;;;;;;8.18;1.52;;;;;;;;;;5041041;28;20441;-77
2024/01/02 05:07:26;;;;;;;7.78;2.10;;;;;;;;;;5021414;28;20048;-77
2024/01/02 05:09:55;;;;;;;7.45;2.08;;;;;;;;;;5021343;28;20117;-77
2024/01/02 05:12:21;;;;;;;7.80;1.77;;;;;;;;;;4989736;28;20128;-78
2024/01/02 05:14:46;;;;;;;9.13;1.77;;;;;;;;;;4991728;28;20480;-78
2024/01/02 05:17:13;;;;;;;7.35;1.75;;;;;;;;;;4989544;28;20444;-78
2024/01/02 05:19:39;;;;;;;4.60;1.17;;;;;;;;;;5006371;28;20100;-78
2024/01/02 05:22:07;;;;;;;4.40;1.33;;;;;;;;;;5006073;28;20076;-77
2024/01/02 05:24:33;;;;;;;6.30;1.25;;;;;;;;;;5005764;28;20056;-77
2024/01/02 05:26:58;;;;;;;7.75;1.13;;;;;;;;;;4988969;28;20037;-79
2024/01/02 05:29:24;;;;;;;5.43;1.70;;;;;;;;;;5022067;28;20025;-78
2024/01/02 05:31:52;;;;;;;7.18;1.77;;;;;;;;;;5005278;28;20037;-78
2024/01/02 05:34:19;;;;;;;6.70;1.40;;;;;;;;;;5006853;28;20037;-78
2024/01/02 05:36:46;;;;;;;8.63;1.23;;;;;;;;;;5005525;28;20055;-79
2024/01/02 05:39:12;;;;;;;12.02;2.60;;;;;;;;;;5021291;28;20100;-78
2024/01/02 05:41:37;;;;;;;6.15;1.20;;;;;;;;;;5021768;28;20120;-78
2024/01/02 05:44:03;;;;;;;5.22;1.42;;;;;;;;;;5020491;28;20021;-78
2024/01/02 05:46:29;;;;;;;7.28;1.35;;;;;;;;;;5020081;28;20040;-78
2024/01/02 05:48:54;;;;;;;10.88;1.88;;;;;;;;;;5039810;28;20029;-78
2024/01/02 05:51:20;;;;;;;5.25;1.00;;;;;;;;;;5008918;28;20078;-78
2024/01/02 05:53:50;;;;;;;7.03;1.33;;;;;;;;;;5007388;28;20033;-78
2024/01/02 05:56:17;;;;;;;10.05;0.95;;;;;;;;;;5003895;28;20045;-78
2024/01/02 05:58:48;;;;;;;6.20;1.25;;;;;;;;;;5020387;28;20025;-78
2024/01/02 06:01:13;;;;;;;4.88;1.20;;;;;;;;;;5038786;28;20032;-78
2024/01/02 06:03:39;;;;;;;9.32;1.40;;;;;;;;;;5040121;28;20053;-78
2024/01/02 06:06:06;;;;;;;11.57;1.88;;;;;;;;;;5005726;28;20060;-77
2024/01/02 06:08:32;;;;;;;7.35;1.52;;;;;;;;;;5042592;28;20025;-79
2024/01/02 06:10:58;;;;;;;6.10;0.98;;;;;;;;;;5005606;28;20028;-78
2024/01/02 06:13:24;;;;;;;2.85;0.93;;;;;;;;;;5040384;28;20042;-79
2024/01/02 06:15:49;;;;;;;9.27;1.30;;;;;;;;;;5025050;28;20036;-78
2024/01/02 06:18:15;;;;;;;5.28;1.15;;;;;;;;;;5025345;28;20036;-79
2024/01/02 06:20:42;;;;;;;6.63;1.83;;;;;;;;;;5008288;28;20047;-80
2024/01/02 06:23:09;;;;;;;6.03;0.95;;;;;;;;;;5024726;28;20040;-81
2024/01/02 06:25:34;;;;;;;7.65;1.48;;;;;;;;;;4992707;28;20038;-79
2024/01/02 06:28:01;;;;;;;9.27;1.05;;;;;;;;;;4994017;28;20037;-78
2024/01/02 06:30:28;;;;;;;7.45;1.27;;;;;;;;;;5020045;28;20112;-77
2024/01/02 06:32:54;;;;;;;6.95;1.30;;;;;;;;;;5017727;28;20065;-77
2024/01/02 06:35:19;;;;;;;3.10;0.95;;;;;;;;;;5034779;28;20391;-78
2024/01/02 06:37:45;;;;;;;5.53;1.10;;;;;;;;;;5035898;28;20112;-78
2024/01/02 06:40:10;;;;;;;6.80;1.40;;;;;;;;;;5001894;28;20033;-78
2024/01/02 06:42:36;;;;;;;9.15;1.63;;;;;;;;;;5016740;28;20033;-78
2024/01/02 06:45:02;;;;;;;6.28;1.27;;;;;;;;;;5017308;28;20034;-78
2024/01/02 06:47:28;;;;;;;15.15;1.80;;;;;;;;;;5017626;28;20025;-78
2024/01/02 06:49:53;;;;;;;3.60;1.10;;;;;;;;;;5017477;28;20060;-77
2024/01/02 06:52:19;;;;;;;4.18;1.15;;;;;;;;;;5035486;28;20029;-78
2024/01/02 06:54:45;;;;;;;5.10;1.10;;;;;;;;;;5016355;28;20038;-78
2024/01/02 06:57:10;;;;;;;5.53;1.02;;;;;;;;;;5033659;28;20044;-77
2024/01/02 06:59:36;;;;;;;7.53;1.60;;;;;;;;;;5034735;28;20431;-77
2024/01/02 07:02:02;;;;;;;5.68;1.13;;;;;;;;;;5035277;28;20044;-78
2024/01/02 07:04:28;;;;;;;7.65;1.17;;;;;;;;;;5016579;28;20400;-77
2024/01/02 07:06:53;;;;;;;2.58;0.80;;;;;;;;;;5015828;28;20049;-77
2024/01/02 07:09:19;;;;;;;5.72;0.85;;;;;;;;;;5033551;28;20076;-77
2024/01/02 07:11:45;;;;;;;4.15;1.20;;;;;;;;;;5017751;28;20029;-78
2024/01/02 07:14:11;;;;;;;6.97;1.10;;;;;;;;;;5032854;28;20040;-78
2024/01/02 07:16:37;;;;;;;3.42;0.85;;;;;;;;;;4983668;28;20029;-77
2024/01/02 07:19:03;;;;;;;4.63;1.25;;;;;;;;;;5006058;28;20154;-79
2024/01/02 07:21:29;;;;;;;2.95;0.82;;;;;;;;;;5005823;28;20106;-78
2024/01/02 07:23:54;;;;;;;4.15;1.25;;;;;;;;;;5019513;28;20488;-78
2024/01/02 07:26:24;;;;;;;5.55;1.23;;;;;;;;;;5020098;28;20036;-78
2024/01/02 07:28:49;;;;;;;4.07;1.20;;;;;;;;;;5025192;28;20097;-78
2024/01/02 07:31:15;;;;;;;6.95;1.48;;;;;;;;;;5027199;28;20030;-77
2024/01/02 07:33:40;;;;;;;4.00;0.85;;;;;;;;;;5010355;28;20038;-77
2024/01/02 07:36:06;;;;;;;3.58;1.17;;;;;;;;;;5042508;28;20037;-77
2024/01/02 07:38:32;;;;;;;6.72;1.02;;;;;;;;;;5008517;28;20037;-77
2024/01/02 07:40:57;;;;;;;7.22;1.00;;;;;;;;;;4993399;28;20441;-77
2024/01/02 07:43:23;;;;;;;4.65;1.17;;;;;;;;;;5022933;28;20089;-78
2024/01/02 07:45:49;;;;;;;4.13;1.20;;;;;;;;;;5041478;28;20030;-78
2024/01/02 07:48:14;;;;;;;7.35;2.03;;;;;;;;;;5006357;28;20034;-78
2024/01/02 07:50:40;;;;;;;3.33;1.25;;;;;;;;;;5007446;28;20026;-79
2024/01/02 07:53:06;;;;;;;4.15;1.00;;;;;;;;;;5008176;28;20025;-77
2024/01/02 07:55:31;;;;;;;3.97;1.27;;;;;;;;;;5023997;28;20029;-77
2024/01/02 07:57:58;;;;;;;2.97;1.20;;;;;;;;;;5007113;28;20033;-77
2024/01/02 08:00:23;;;;;;;4.03;1.20;;;;;;;;;;5005718;28;20052;-77
2024/01/02 08:02:49;;;;;;;2.10;0.98;;;;;;;;;;5005468;28;20037;-77
2024/01/02 08:05:14;;;;;;;5.10;0.85;;;;;;;;;;5006339;28;20100;-78
2024/01/02 08:07:40;;;;;;;2.03;0.60;;;;;;;;;;5023858;28;20021;-77
2024/01/02 08:10:06;;;;;;;3.90;0.98;;;;;;;;;;5025095;28;20381;-77
2024/01/02 08:12:32;;;;;;;5.32;0.80;;;;;;;;;;5022120;28;20057;-78
2024/01/02 08:14:58;;;;;;;2.03;0.80;;;;;;;;;;5024544;28;20037;-77
2024/01/02 08:17:23;;;;;;;2.90;0.90;;;;;;;;;;5047210;28;20064;-77
2024/01/02 08:19:50;;;;;;;2.97;0.70;;;;;;;;;;5008342;28;20057;-77
2024/01/02 08:22:16;;;;;;;3.72;0.93;;;;;;;;;;5022906;28;20030;-77
2024/01/02 08:24:41;;;;;;;2.92;0.80;;;;;;;;;;4989516;28;20033;-78
2024/01/02 08:27:07;;;;;;;3.30;0.65;;;;;;;;;;4990327;28;20031;-78
2024/01/02 08:29:33;;;;;;;3.53;1.33;;;;;;;;;;5005492;28;20056;-78
2024/01/02 08:31:58;;;;;;;2.38;0.82;;;;;;;;;;5005483;28;20442;-78
2024/01/02 08:34:24;;;;;;;2.78;0.70;;;;;;;;;;5022705;28;20041;-78
2024/01/02 08:36:49;;;;;;;1.23;0.60;;;;;;;;;;5038114;28;20029;-77
2024/01/02 08:39:15;;;;;;;1.85;0.70;;;;;;;;;;5021470;28;20384;-78
2024/01/02 08:41:40;;;;;;;2.15;0.80;;;;;;;;;;5022266;28;20034;-77
2024/01/02 08:44:06;;;;;;;2.78;0.98;;;;;;;;;;5005171;28;20041;-77
2024/01/02 08:46:33;;;;;;;1.40;0.50;;;;;;;;;;5020655;28;20477;-77
2024/01/02 08:48:58;;;;;;;2.42;0.50;;;;;;;;;;5038638;28;20021;-78
2024/01/02 08:51:24;;;;;;;1.15;0.60;;;;;;;;;;5003491;28;20030;-78
2024/01/02 08:53:50;;;;;;;1.10;0.30;;;;;;;;;;5019618;28;20052;-78
2024/01/02 08:56:16;;;;;;;2.95;0.90;;;;;;;;;;5037362;28;20033;-78
2024/01/02 08:58:42;;;;;;;1.88;0.40;;;;;;;;;;5019207;28;20435;-77
2024/01/02 09:01:11;;;;;;;1.30;0.65;;;;;;;;;;4986514;28;20113;-79
2024/01/02 09:03:37;;;;;;;1.77;0.40;;;;;;;;;;5036831;28;20163;-78
2024/01/02 09:06:07;;;;;;;2.13;0.50;;;;;;;;;;5035948;28;20061;-79
2024/01/02 09:08:33;;;;;;;1.55;0.40;;;;;;;;;;5018688;28;20546;-78
2024/01/02 09:10:59;;;;;;;0.55;0.45;;;;;;;;;;5019272;28;20025;-78
2024/01/02 09:13:27;;;;;;;0.77;0.60;;;;;;;;;;4986862;28;20558;-77
2024/01/02 09:15:53;;;;;;;2.42;0.57;;;;;;;;;;5003600;28;20045;-79
2024/01/02 09:18:19;;;;;;;1.23;0.40;;;;;;;;;;5003758;28;20029;-79
2024/01/02 09:20:47;;;;;;;0.52;0.30;;;;;;;;;;5020878;28;20033;-77
2024/01/02 09:23:12;;;;;;;3.75;0.90;;;;;;;;;;5004638;28;20447;-77
2024/01/02 09:25:43;;;;;;;2.78;0.85;;;;;;;;;;5019771;28;20029;-77
2024/01/02 09:28:12;;;;;;;2.35;0.73;;;;;;;;;;5019346;28;20038;-77
2024/01/02 09:30:39;;;;;;;2.42;0.50;;;;;;;;;;5019529;28;20033;-78
2024/01/02 09:33:07;;;;;;;3.05;0.57;;;;;;;;;;5003758;28;20041;-78
2024/01/02 09:35:33;;;;;;;0.68;0.30;;;;;;;;;;5019430;28;20124;-77
2024/01/02 09:38:04;;;;;;;5.03;0.70;;;;;;;;;;4988064;28;20518;-76
2024/01/02 09:40:29;;;;;;;1.20;0.50;;;;;;;;;;5005465;28;20104;-78
2024/01/02 09:43:05;;;;;;;5.07;0.40;;;;;;;;;;4989085;28;20068;-78
2024/01/02 09:45:41;;;;;;;1.08;0.47;;;;;;;;;;5021807;28;20022;-77
2024/01/02 09:48:20;;;;;;;1.27;0.38;;;;;;;;;;5007688;28;20021;-79
2024/01/02 09:50:57;;;;;;;1.35;0.57;;;;;;;;;;4987862;28;20042;-78
2024/01/02 09:53:43;;;;;;;0.75;0.40;;;;;;;;;;5005664;28;20034;-77
2024/01/02 09:56:21;;;;;;;0.85;0.47;;;;;;;;;;4994717;28;20041;-78
2024/01/02 09:59:02;;;;;;;1.45;0.70;;;;;;;;;;5021018;28;20080;-78
2024/01/02 10:01:31;;;;;;;1.45;0.50;;;;;;;;;;5004064;28;20480;-79
2024/01/02 10:04:09;;;;;;;1.30;0.30;;;;;;;;;;4986706;28;20033;-78
2024/01/02 10:06:35;;;;;;;0.85;0.38;;;;;;;;;;5017588;28;20029;-78
2024/01/02 10:09:19;;;;;;;1.02;0.40;;;;;;;;;;5017937;28;20044;-77
2024/01/02 10:12:04;;;;;;;0.68;0.30;;;;;;;;;;5017285;28;20507;-77
2024/01/02 10:14:48;;;;;;;1.67;0.50;;;;;;;;;;5016687;28;20037;-79
2024/01/02 10:17:18;;;;;;;2.75;0.80;;;;;;;;;;5001921;28;20651;-78
2024/01/02 10:19:49;;;;;;;0.55;0.30;;;;;;;;;;4984562;28;20048;-77
2024/01/02 10:22:18;;;;;;;1.48;0.50;;;;;;;;;;4984451;28;20033;-79
2024/01/02 10:24:53;;;;;;;1.00;0.50;;;;;;;;;;5034630;28;20076;-78
2024/01/02 10:27:30;;;;;;;1.45;0.57;;;;;;;;;;5035277;28;20049;-77
2024/01/02 10:30:06;;;;;;;0.65;0.32;;;;;;;;;;5017294;28;20048;-77
2024/01/02 10:33:08;;;;;;;2.65;0.40;;;;;;;;;;5002041;28;20052;-79
2024/01/02 10:35:42;;;;;;;1.58;0.35;;;;;;;;;;5000494;28;20037;-79
2024/01/02 10:38:08;;;;;;;1.77;0.50;;;;;;;;;;5017496;28;20484;-79
2024/01/02 10:40:37;;;;;;;0.88;0.30;;;;;;;;;;5017410;28;20083;-78
2024/01/02 10:43:17;;;;;;;0.73;0.28;;;;;;;;;;5002867;28;20033;-77
2024/01/02 10:45:52;;;;;;;1.15;0.80;;;;;;;;;;4988166;28;20029;-77
2024/01/02 10:48:27;;;;;;;1.05;0.50;;;;;;;;;;4988555;28;20041;-77
2024/01/02 10:51:06;;;;;;;0.85;0.30;;;;;;;;;;5023650;28;20067;-77
2024/01/02 10:53:35;;;;;;;1.27;0.40;;;;;;;;;;5022069;28;20040;-77
2024/01/02 10:56:00;;;;;;;;;;;;;;;;;;5027818;28;20041;-77
2024/01/02 10:58:28;;;;;;;0.75;0.40;;;;;;;;;;5009851;28;19905;-76
2024/01/02 11:01:10;;;;;;;0.63;0.38;;;;;;;;;;5022503;28;20034;-77
2024/01/02 11:03:45;;;;;;;0.90;0.35;;;;;;;;;;5007686;28;20033;-77
2024/01/02 11:06:23;;;;;;;1.25;0.50;;;;;;;;;;4991180;28;20040;-77
2024/01/02 11:08:49;;;;;;;1.60;0.50;;;;;;;;;;5024162;28;20025;-79
2024/01/02 11:11:17;;;;;;;1.67;0.73;;;;;;;;;;5022828;28;20555;-79
2024/01/02 11:13:46;;;;;;;0.75;0.47;;;;;;;;;;5005630;28;20101;-78
2024/01/02 11:16:19;;;;;;;2.83;1.00;;;;;;;;;;5021883;28;20041;-79
2024/01/02 11:18:55;;;;;;;1.98;0.68;;;;;;;;;;4989471;28;20116;-78
2024/01/02 11:21:24;;;;;;;1.73;0.70;;;;;;;;;;5017725;28;20135;-78
2024/01/02 11:23:50;;;;;;;;;;;;;;;;;;5003119;28;20037;-77
2024/01/02 11:26:27;;;;;;;6.03;1.90;;;;;;;;;;4992994;28;20323;-78
2024/01/02 11:28:54;;;;;;;3.00;0.80;;;;;;;;;;5024646;28;20101;-77
2024/01/02 11:31:21;;;;;;;2.67;1.02;;;;;;;;;;5026729;28;20026;-78
2024/01/02 11:33:53;;;;;;;3.17;1.00;;;;;;;;;;5009399;28;20503;-78
2024/01/02 11:36:28;;;;;;;1.33;0.60;;;;;;;;;;5008127;28;20038;-78
2024/01/02 11:38:54;;;;;;;2.17;0.55;;;;;;;;;;5025274;28;20044;-78
2024/01/02 11:41:20;;;;;;;3.58;1.23;;;;;;;;;;5050402;28;20034;-78
2024/01/02 11:43:59;;;;;;;1.65;0.57;;;;;;;;;;5019090;28;20057;-79
2024/01/02 11:46:24;;;;;;;;;;;;;;;;;;5051175;28;20056;-77
2024/01/02 11:48:51;;;;;;;2.33;0.60;;;;;;;;;;5045481;28;19909;-78
2024/01/02 11:51:17;;;;;;;1.42;0.70;;;;;;;;;;4992778;28;20030;-77
2024/01/02 11:54:19;;;;;;;0.90;0.50;;;;;;;;;;5010600;28;20041;-77
2024/01/02 11:56:45;;;;;;;1.27;0.52;;;;;;;;;;4947537;29;20043;-77
2024/01/02 11:59:21;;;;;;;1.77;0.65;;;;;;;;;;4937569;29;20048;-77
2024/01/02 12:01:46;;;;;;;2.40;0.90;;;;;;;;;;4943430;29;20039;-77
2024/01/02 12:04:32;;;;;;;1.88;0.80;;;;;;;;;;4943161;29;20042;-77
2024/01/02 12:07:03;;;;;;;1.40;0.80;;;;;;;;;;4943450;29;20031;-77
2024/01/02 12:09:30;;;;;;;1.20;0.50;;;;;;;;;;4944742;29;20039;-77
2024/01/02 12:12:14;;;;;;;1.02;0.60;;;;;;;;;;4958912;29;20039;-78
2024/01/02 12:15:12;;;;;;;3.65;0.82;;;;;;;;;;4957960;29;20087;-77
2024/01/02 12:17:59;;;;;;;2.20;0.80;;;;;;;;;;4946927;29;20039;-76
2024/01/02 12:20:27;;;;;;;7.47;2.53;;;;;;;;;;4929781;29;20498;-77
2024/01/02 12:22:53;;;;;;;3.17;1.45;;;;;;;;;;4934970;29;20046;-77
2024/01/02 12:28:24;;;;;;;1.60;0.60;;;;;;;;;;4945175;29;20038;-78
2024/01/02 12:31:03;;;;;;;3.38;1.20;;;;;;;;;;4972749;28;20065;-78
2024/01/02 12:33:34;;;;;;;5.55;2.60;;;;;;;;;;5022537;28;20540;-78
2024/01/02 12:36:16;;;;;;;6.20;2.42;;;;;;;;;;4989878;28;20124;-78
2024/01/02 12:38:52;;;;;;;5.75;2.67;;;;;;;;;;5008206;28;20570;-78
2024/01/02 12:41:20;;;;;;;3.70;1.35;;;;;;;;;;5006882;28;20029;-78
2024/01/02 12:43:52;;;;;;;2.65;1.00;;;;;;;;;;5022891;28;20029;-77
2024/01/02 12:46:25;;;;;;;2.75;1.15;;;;;;;;;;4976133;28;20670;-78
2024/01/02 12:49:11;;;;;;;2.83;1.20;;;;;;;;;;4989977;28;20522;-77
2024/01/02 12:51:37;;;;;;;2.22;1.10;;;;;;;;;;4989552;28;20029;-78
2024/01/02 12:54:04;;;;;;;3.58;1.27;;;;;;;;;;5003912;28;20032;-77
2024/01/02 12:56:34;;;;;;;3.65;1.30;;;;;;;;;;4988292;28;20396;-77
2024/01/02 12:58:59;;;;;;;;;;;;;;;;;;5004209;28;20396;-79
2024/01/02 13:01:25;;;;;;;1.35;0.70;;;;;;;;;;4987072;28;19909;-78
2024/01/02 13:03:51;;;;;;;1.38;0.60;;;;;;;;;;4987045;28;20037;-79
2024/01/02 13:06:19;;;;;;;1.85;0.80;;;;;;;;;;5003139;28;20476;-78
2024/01/02 13:08:45;;;;;;;4.05;0.68;;;;;;;;;;5003445;28;20452;-78
2024/01/02 13:11:14;;;;;;;2.00;0.77;;;;;;;;;;5002715;28;20488;-78
2024/01/02 13:13:42;;;;;;;2.58;0.70;;;;;;;;;;4972252;28;20408;-77
2024/01/02 13:16:11;;;;;;;3.42;1.00;;;;;;;;;;4988797;28;20404;-78
2024/01/02 13:18:38;;;;;;;1.65;0.80;;;;;;;;;;5020547;28;20030;-80
2024/01/02 13:21:03;;;;;;;1.50;0.70;;;;;;;;;;4987460;28;20049;-79
2024/01/02 13:23:32;;;;;;;0.57;0.40;;;;;;;;;;5019788;28;20036;-79
2024/01/02 13:25:58;;;;;;;;;;;;;;;;;;5020476;28;20500;-79
2024/01/02 13:28:24;;;;;;;1.15;0.47;;;;;;;;;;4986922;28;20015;-78
2024/01/02 13:30:52;;;;;;;1.98;0.55;;;;;;;;;;5002681;28;20477;-79
2024/01/02 13:33:19;;;;;;;0.35;0.20;;;;;;;;;;5002261;28;20136;-78
2024/01/02 13:35:58;;;;;;;1.65;0.63;;;;;;;;;;5002142;28;20041;-78
2024/01/02 13:38:24;;;;;;;1.17;0.50;;;;;;;;;;5018265;28;20105;-78
2024/01/02 13:41:00;;;;;;;1.38;0.70;;;;;;;;;;5001831;28;20447;-78
2024/01/02 13:43:26;;;;;;;2.15;0.50;;;;;;;;;;5002498;28;20025;-79
2024/01/02 13:45:52;;;;;;;1.75;0.80;;;;;;;;;;5001884;28;20401;-78
2024/01/02 13:48:20;;;;;;;2.00;0.82;;;;;;;;;;5000842;28;20029;-78
2024/01/02 13:50:46;;;;;;;1.23;0.63;;;;;;;;;;5017880;28;20505;-78
2024/01/02 13:53:15;;;;;;;4.07;1.27;;;;;;;;;;5019294;28;20048;-79
2024/01/02 13:55:41;;;;;;;1.88;0.80;;;;;;;;;;5018480;28;20615;-77
2024/01/02 13:58:09;;;;;;;1.38;0.65;;;;;;;;;;5036157;28;20027;-78
2024/01/02 14:00:35;;;;;;;1.58;0.60;;;;;;;;;;5037331;28;20492;-77
2024/01/02 14:03:05;;;;;;;4.28;0.60;;;;;;;;;;5036575;28;20037;-78
2024/01/02 14:05:34;;;;;;;1.77;0.63;;;;;;;;;;5018533;28;20456;-79
2024/01/02 14:08:00;;;;;;;2.20;0.77;;;;;;;;;;5003449;28;20469;-79
2024/01/02 14:10:30;;;;;;;2.15;0.60;;;;;;;;;;4986974;28;20033;-77
2024/01/02 14:12:59;;;;;;;1.30;0.77;;;;;;;;;;5003141;28;20039;-79
2024/01/02 14:15:29;;;;;;;2.22;0.80;;;;;;;;;;5003130;28;20031;-79
2024/01/02 14:18:05;;;;;;;1.20;0.52;;;;;;;;;;5020163;28;20485;-78
2024/01/02 14:20:38;;;;;;;1.77;0.70;;;;;;;;;;5020179;28;20040;-78
2024/01/02 14:23:22;;;;;;;2.53;1.10;;;;;;;;;;5003658;28;20033;-79
2024/01/02 14:25:59;;;;;;;2.58;1.02;;;;;;;;;;5002471;28;20045;-80
2024/01/02 14:28:26;;;;;;;1.63;0.60;;;;;;;;;;5019474;28;20036;-78
2024/01/02 14:31:10;;;;;;;1.45;0.60;;;;;;;;;;4986533;28;20029;-78
2024/01/02 14:34:12;;;;;;;2.13;0.70;;;;;;;;;;5002914;28;20033;-78
2024/01/02 14:36:44;;;;;;;0.85;0.43;;;;;;;;;;4939437;29;20537;-78
2024/01/02 14:39:26;;;;;;;1.35;0.70;;;;;;;;;;5006872;28;20095;-78
2024/01/02 14:41:52;;;;;;;2.40;1.00;;;;;;;;;;5018718;28;20041;-79
2024/01/02 14:44:30;;;;;;;1.45;0.77;;;;;;;;;;5035572;28;20051;-78
2024/01/02 14:47:01;;;;;;;3.87;1.20;;;;;;;;;;5020457;28;20472;-77
2024/01/02 14:49:32;;;;;;;2.15;0.93;;;;;;;;;;4986586;28;20029;-78
2024/01/02 14:52:10;;;;;;;2.85;1.08;;;;;;;;;;5019712;28;20025;-78
2024/01/02 14:54:51;;;;;;;2.75;1.05;;;;;;;;;;5019834;28;20025;-79
2024/01/02 14:57:18;;;;;;;2.20;0.90;;;;;;;;;;5005946;28;20093;-78
2024/01/02 14:59:49;;;;;;;2.13;0.98;;;;;;;;;;5021202;28;20045;-78
2024/01/02 15:02:28;;;;;;;1.40;0.70;;;;;;;;;;5004970;28;20099;-79
2024/01/02 15:05:00;;;;;;;3.45;2.15;;;;;;;;;;5020164;28;20121;-78
2024/01/02 15:07:34;;;;;;;7.10;2.05;;;;;;;;;;5020537;28;20036;-79
2024/01/02 15:10:27;;;;;;;9.52;2.90;;;;;;;;;;5009298;28;20031;-77
2024/01/02 15:12:53;;;;;;;6.20;2.15;;;;;;;;;;5004360;28;20091;-79
2024/01/02 15:15:40;;;;;;;2.35;1.05;;;;;;;;;;5003988;28;20041;-80
2024/01/02 15:18:08;;;;;;;1.92;0.98;;;;;;;;;;5020882;28;20052;-80